createdAt,value
2022-11-06T00:00:44.545Z,7.56
2022-11-06T00:01:44.714Z,7.52
2022-11-06T00:02:44.692Z,7.42
2022-11-06T00:03:44.579Z,7.45
2022-11-06T00:04:44.615Z,7.55
2022-11-06T00:05:44.621Z,7.62
2022-11-06T00:06:44.527Z,7.66
2022-11-06T00:07:44.565Z,7.60
2022-11-06T00:08:44.537Z,7.71
2022-11-06T00:09:44.490Z,7.67
2022-11-06T00:10:44.554Z,7.71
2022-11-06T00:11:44.441Z,7.74
2022-11-06T00:12:44.471Z,7.77
2022-11-06T00:13:44.804Z,7.77
2022-11-06T00:14:44.464Z,7.84
2022-11-06T00:15:44.545Z,7.89
2022-11-06T00:16:44.509Z,7.79
2022-11-06T00:17:44.486Z,7.78
2022-11-06T00:18:44.527Z,7.78
2022-11-06T00:19:44.852Z,7.87
2022-11-06T00:20:44.504Z,7.89
2022-11-06T00:21:44.485Z,7.93
2022-11-06T00:22:44.427Z,7.99
2022-11-06T00:23:44.423Z,7.99
2022-11-06T00:24:44.503Z,8.03
2022-11-06T00:25:44.445Z,7.94
2022-11-06T00:26:45.844Z,8.07
2022-11-06T00:27:44.359Z,8.03
2022-11-06T00:28:44.330Z,7.97
2022-11-06T00:29:44.354Z,7.90
2022-11-06T00:30:44.324Z,8.00
2022-11-06T00:31:44.415Z,7.94
2022-11-06T00:32:44.481Z,7.90
2022-11-06T00:33:44.436Z,8.03
2022-11-06T00:34:44.437Z,8.02
2022-11-06T00:35:44.364Z,7.92
2022-11-06T00:36:44.366Z,8.02
2022-11-06T00:37:44.434Z,8.08
2022-11-06T00:38:44.437Z,8.00
2022-11-06T00:39:44.341Z,8.03
2022-11-06T00:40:44.388Z,8.04
2022-11-06T00:41:44.315Z,8.02
2022-11-06T00:42:44.324Z,8.07
2022-11-06T00:43:44.315Z,8.07
2022-11-06T00:44:44.329Z,8.03
2022-11-06T00:45:44.423Z,8.10
2022-11-06T00:46:44.287Z,8.08
2022-11-06T00:47:44.267Z,8.07
2022-11-06T00:48:44.194Z,8.14
2022-11-06T00:49:44.306Z,8.11
2022-11-06T00:50:44.183Z,8.15
2022-11-06T00:51:44.219Z,8.18
2022-11-06T00:52:44.184Z,8.10
2022-11-06T00:53:44.185Z,8.14
2022-11-06T00:54:44.167Z,8.08
2022-11-06T00:55:44.273Z,8.04
2022-11-06T00:56:44.274Z,8.10
2022-11-06T00:57:44.214Z,8.21
2022-11-06T00:58:44.269Z,8.21
2022-11-06T00:59:44.178Z,8.20
2022-11-06T01:00:44.140Z,8.15
2022-11-06T01:01:44.471Z,8.07
2022-11-06T01:02:44.280Z,8.07
2022-11-06T01:03:44.170Z,7.99
2022-11-06T01:04:44.170Z,7.90
2022-11-06T01:05:44.169Z,7.94
2022-11-06T01:06:44.197Z,7.93
2022-11-06T01:07:44.063Z,7.94
2022-11-06T01:08:44.047Z,7.93
2022-11-06T01:09:44.037Z,7.96
2022-11-06T01:10:45.041Z,7.81
2022-11-06T01:12:11.842Z,7.96
2022-11-06T01:12:46.095Z,7.94
2022-11-06T01:13:44.114Z,7.94
2022-11-06T01:14:44.134Z,7.96
2022-11-06T01:15:44.062Z,7.96
2022-11-06T01:16:44.099Z,8.02
2022-11-06T01:17:44.223Z,7.96
2022-11-06T01:18:44.139Z,8.02
2022-11-06T01:19:44.106Z,7.96
2022-11-06T01:20:44.038Z,7.90
2022-11-06T01:21:44.057Z,7.89
2022-11-06T01:22:44.076Z,7.94
2022-11-06T01:23:44.609Z,7.93
2022-11-06T01:24:44.166Z,7.92
2022-11-06T01:25:44.062Z,7.97
2022-11-06T01:27:04.865Z,7.97
2022-11-06T01:27:45.927Z,8.02
2022-11-06T01:28:44.141Z,8.04
2022-11-06T01:29:43.965Z,8.04
2022-11-06T01:30:43.931Z,8.11
2022-11-06T01:31:44.003Z,7.99
2022-11-06T01:32:43.905Z,8.02
2022-11-06T01:33:44.933Z,7.97
2022-11-06T01:34:43.864Z,7.97
2022-11-06T01:35:44.047Z,7.89
2022-11-06T01:36:43.964Z,7.94
2022-11-06T01:37:44.045Z,7.96
2022-11-06T01:38:43.925Z,7.94
2022-11-06T01:39:44.021Z,7.94
2022-11-06T01:40:43.914Z,8.00
2022-11-06T01:41:43.956Z,7.82
2022-11-06T01:42:43.893Z,7.89
2022-11-06T01:43:43.881Z,7.84
2022-11-06T01:44:43.943Z,7.99
2022-11-06T01:45:43.864Z,7.89
2022-11-06T01:46:43.974Z,7.94
2022-11-06T01:47:43.912Z,7.87
2022-11-06T01:48:43.905Z,7.92
2022-11-06T01:49:43.930Z,7.94
2022-11-06T01:50:44.871Z,8.00
2022-11-06T01:51:43.801Z,7.97
2022-11-06T01:52:43.819Z,8.00
2022-11-06T01:53:43.782Z,8.11
2022-11-06T01:54:43.740Z,8.02
2022-11-06T01:55:43.816Z,8.02
2022-11-06T01:56:43.750Z,7.99
2022-11-06T01:57:43.893Z,7.94
2022-11-06T01:58:43.821Z,7.85
2022-11-06T01:59:43.890Z,7.78
2022-11-06T02:00:43.813Z,7.81
2022-11-06T02:01:43.879Z,7.78
2022-11-06T02:02:44.866Z,7.72
2022-11-06T02:03:43.738Z,7.71
2022-11-06T02:04:43.815Z,7.74
2022-11-06T02:05:43.747Z,7.69
2022-11-06T02:06:43.761Z,7.66
2022-11-06T02:07:44.722Z,7.60
2022-11-06T02:08:43.739Z,7.63
2022-11-06T02:09:43.689Z,7.60
2022-11-06T02:10:43.715Z,7.71
2022-11-06T02:11:43.602Z,7.69
2022-11-06T02:12:43.638Z,7.69
2022-11-06T02:13:43.560Z,7.58
2022-11-06T02:14:43.578Z,7.58
2022-11-06T02:15:43.599Z,7.60
2022-11-06T02:16:43.566Z,7.62
2022-11-06T02:17:43.578Z,7.55
2022-11-06T02:18:43.556Z,7.53
2022-11-06T02:19:43.542Z,7.56
2022-11-06T02:20:43.568Z,7.59
2022-11-06T02:21:43.688Z,7.58
2022-11-06T02:22:43.927Z,7.56
2022-11-06T02:23:43.634Z,7.69
2022-11-06T02:24:43.619Z,7.74
2022-11-06T02:25:43.795Z,7.67
2022-11-06T02:26:43.778Z,7.82
2022-11-06T02:27:43.539Z,7.72
2022-11-06T02:28:43.585Z,7.66
2022-11-06T02:29:43.561Z,7.62
2022-11-06T02:30:43.563Z,7.58
2022-11-06T02:31:43.500Z,7.66
2022-11-06T02:32:43.541Z,7.63
2022-11-06T02:33:43.588Z,7.58
2022-11-06T02:34:43.531Z,7.55
2022-11-06T02:35:43.520Z,7.55
2022-11-06T02:36:43.433Z,7.69
2022-11-06T02:37:43.455Z,7.71
2022-11-06T02:38:43.399Z,7.79
2022-11-06T02:39:44.463Z,7.79
2022-11-06T02:40:43.476Z,7.82
2022-11-06T02:41:43.481Z,7.72
2022-11-06T02:42:43.500Z,7.78
2022-11-06T02:43:43.442Z,7.77
2022-11-06T02:44:43.773Z,7.66
2022-11-06T02:45:43.460Z,7.63
2022-11-06T02:46:43.463Z,7.56
2022-11-06T02:47:43.445Z,7.59
2022-11-06T02:48:43.524Z,7.60
2022-11-06T02:49:43.448Z,7.67
2022-11-06T02:50:43.484Z,7.67
2022-11-06T02:51:43.466Z,7.62
2022-11-06T02:52:43.360Z,7.50
2022-11-06T02:53:44.083Z,7.59
2022-11-06T02:54:43.302Z,7.58
2022-11-06T02:55:44.324Z,7.62
2022-11-06T02:56:43.294Z,7.71
2022-11-06T02:57:43.339Z,7.59
2022-11-06T02:58:47.871Z,7.63
2022-11-06T02:59:45.261Z,7.63
2022-11-06T03:00:43.296Z,7.69
2022-11-06T03:01:43.430Z,7.58
2022-11-06T03:02:43.421Z,7.60
2022-11-06T03:03:43.318Z,7.60
2022-11-06T03:04:43.323Z,7.69
2022-11-06T03:05:43.402Z,7.71
2022-11-06T03:06:43.283Z,7.82
2022-11-06T03:07:43.337Z,7.74
2022-11-06T03:08:43.280Z,7.87
2022-11-06T03:09:43.298Z,7.79
2022-11-06T03:10:43.280Z,7.67
2022-11-06T03:11:43.278Z,7.67
2022-11-06T03:12:43.210Z,7.69
2022-11-06T03:13:43.157Z,7.66
2022-11-06T03:14:43.172Z,7.59
2022-11-06T03:15:43.219Z,7.63
2022-11-06T03:16:43.302Z,7.58
2022-11-06T03:17:43.205Z,7.60
2022-11-06T03:18:43.233Z,7.72
2022-11-06T03:19:43.170Z,7.60
2022-11-06T03:20:43.200Z,7.62
2022-11-06T03:21:44.179Z,7.55
2022-11-06T03:22:43.178Z,7.60
2022-11-06T03:23:43.233Z,7.66
2022-11-06T03:24:43.146Z,7.63
2022-11-06T03:25:43.179Z,7.69
2022-11-06T03:26:43.169Z,7.69
2022-11-06T03:27:43.350Z,7.71
2022-11-06T03:28:43.219Z,7.72
2022-11-06T03:29:43.148Z,7.67
2022-11-06T03:30:43.136Z,7.74
2022-11-06T03:31:43.097Z,7.59
2022-11-06T03:32:43.046Z,7.62
2022-11-06T03:33:43.029Z,7.59
2022-11-06T03:34:42.998Z,7.63
2022-11-06T03:35:43.087Z,7.71
2022-11-06T03:36:43.159Z,7.81
2022-11-06T03:38:04.143Z,7.75
2022-11-06T03:38:43.005Z,7.81
2022-11-06T03:39:43.080Z,7.75
2022-11-06T03:40:43.629Z,7.87
2022-11-06T03:41:43.044Z,7.85
2022-11-06T03:42:43.044Z,7.82
2022-11-06T03:43:43.098Z,7.84
2022-11-06T03:44:43.000Z,7.84
2022-11-06T03:45:43.001Z,7.82
2022-11-06T03:46:43.045Z,7.75
2022-11-06T03:47:43.016Z,7.71
2022-11-06T03:48:42.997Z,7.67
2022-11-06T03:49:42.904Z,7.74
2022-11-06T03:50:42.917Z,7.77
2022-11-06T03:51:42.881Z,7.69
2022-11-06T03:52:43.390Z,7.75
2022-11-06T03:53:44.102Z,7.72
2022-11-06T03:54:42.863Z,7.78
2022-11-06T03:55:42.977Z,7.77
2022-11-06T03:56:43.001Z,7.75
2022-11-06T03:57:42.955Z,7.77
2022-11-06T03:58:42.951Z,7.77
2022-11-06T03:59:44.005Z,7.62
2022-11-06T04:00:42.923Z,7.69
2022-11-06T04:01:43.013Z,7.62
2022-11-06T04:02:43.133Z,7.66
2022-11-06T04:03:42.853Z,7.63
2022-11-06T04:04:42.925Z,7.63
2022-11-06T04:05:42.888Z,7.63
2022-11-06T04:06:42.883Z,7.71
2022-11-06T04:07:42.841Z,7.74
2022-11-06T04:08:42.761Z,7.74
2022-11-06T04:09:42.762Z,7.71
2022-11-06T04:10:42.805Z,7.75
2022-11-06T04:11:42.843Z,7.81
2022-11-06T04:12:42.731Z,7.62
2022-11-06T04:13:42.704Z,7.67
2022-11-06T04:14:42.701Z,7.63
2022-11-06T04:15:42.857Z,7.72
2022-11-06T04:16:42.846Z,7.77
2022-11-06T04:17:42.834Z,7.72
2022-11-06T04:18:42.800Z,7.58
2022-11-06T04:19:42.755Z,7.56
2022-11-06T04:20:42.791Z,7.66
2022-11-06T04:21:42.814Z,7.47
2022-11-06T04:22:43.607Z,7.58
2022-11-06T04:23:42.714Z,7.53
2022-11-06T04:24:42.744Z,7.55
2022-11-06T04:25:42.736Z,7.62
2022-11-06T04:26:42.761Z,7.62
2022-11-06T04:27:42.682Z,7.53
2022-11-06T04:28:42.733Z,7.58
2022-11-06T04:29:42.707Z,7.52
2022-11-06T04:30:42.685Z,7.62
2022-11-06T04:31:42.643Z,7.50
2022-11-06T04:32:42.639Z,7.63
2022-11-06T04:33:42.595Z,7.60
2022-11-06T04:34:42.612Z,7.71
2022-11-06T04:35:42.530Z,7.67
2022-11-06T04:36:42.566Z,7.63
2022-11-06T04:37:42.613Z,7.67
2022-11-06T04:38:42.559Z,7.77
2022-11-06T04:39:42.522Z,7.66
2022-11-06T04:40:42.522Z,7.66
2022-11-06T04:41:42.518Z,7.74
2022-11-06T04:42:42.565Z,7.66
2022-11-06T04:43:42.643Z,7.81
2022-11-06T04:44:43.114Z,7.85
2022-11-06T04:45:42.580Z,7.74
2022-11-06T04:46:42.539Z,7.87
2022-11-06T04:47:42.582Z,7.92
2022-11-06T04:48:42.640Z,7.84
2022-11-06T04:49:42.567Z,7.87
2022-11-06T04:50:42.557Z,7.92
2022-11-06T04:51:42.569Z,7.97
2022-11-06T04:52:42.611Z,7.94
2022-11-06T04:53:42.500Z,7.79
2022-11-06T04:55:01.455Z,7.63
2022-11-06T04:55:42.465Z,7.74
2022-11-06T04:56:46.055Z,7.75
2022-11-06T04:57:43.406Z,7.72
2022-11-06T04:58:42.459Z,7.77
2022-11-06T04:59:42.443Z,7.69
2022-11-06T05:00:42.469Z,7.79
2022-11-06T05:01:42.624Z,7.72
2022-11-06T05:02:42.565Z,7.82
2022-11-06T05:03:42.395Z,7.79
2022-11-06T05:04:42.535Z,7.72
2022-11-06T05:05:42.525Z,7.87
2022-11-06T05:06:42.460Z,7.67
2022-11-06T05:07:42.452Z,7.81
2022-11-06T05:08:42.400Z,7.84
2022-11-06T05:09:42.413Z,7.87
2022-11-06T05:10:42.449Z,7.89
2022-11-06T05:11:42.387Z,7.77
2022-11-06T05:12:42.413Z,7.81
2022-11-06T05:13:42.355Z,7.85
2022-11-06T05:14:42.376Z,7.90
2022-11-06T05:15:42.310Z,7.82
2022-11-06T05:16:42.303Z,7.87
2022-11-06T05:17:42.251Z,7.87
2022-11-06T05:18:42.436Z,7.79
2022-11-06T05:19:42.290Z,7.75
2022-11-06T05:20:42.241Z,7.78
2022-11-06T05:21:42.267Z,7.72
2022-11-06T05:22:42.265Z,7.85
2022-11-06T05:23:42.208Z,7.87
2022-11-06T05:24:42.328Z,7.81
2022-11-06T05:25:42.298Z,7.72
2022-11-06T05:26:42.341Z,7.67
2022-11-06T05:27:42.276Z,7.66
2022-11-06T05:28:43.130Z,7.74
2022-11-06T05:29:42.289Z,7.75
2022-11-06T05:30:42.265Z,7.79
2022-11-06T05:31:42.233Z,7.67
2022-11-06T05:32:43.317Z,7.78
2022-11-06T05:33:42.263Z,7.75
2022-11-06T05:34:42.270Z,7.67
2022-11-06T05:35:42.251Z,7.74
2022-11-06T05:36:42.218Z,7.79
2022-11-06T05:37:42.438Z,7.78
2022-11-06T05:38:42.120Z,7.81
2022-11-06T05:39:42.327Z,7.75
2022-11-06T05:40:43.079Z,7.77
2022-11-06T05:41:42.103Z,7.84
2022-11-06T05:42:42.143Z,7.71
2022-11-06T05:43:42.172Z,7.75
2022-11-06T05:44:42.080Z,7.77
2022-11-06T05:45:42.098Z,7.84
2022-11-06T05:46:48.717Z,7.79
2022-11-06T05:47:44.028Z,7.89
2022-11-06T05:48:42.087Z,7.89
2022-11-06T05:49:42.173Z,7.81
2022-11-06T05:50:42.061Z,7.94
2022-11-06T05:51:42.121Z,7.85
2022-11-06T05:52:42.114Z,7.96
2022-11-06T05:53:42.034Z,7.90
2022-11-06T05:54:43.335Z,7.84
2022-11-06T05:55:42.105Z,7.77
2022-11-06T05:56:42.586Z,7.74
2022-11-06T05:57:42.112Z,7.77
2022-11-06T05:58:42.093Z,7.82
2022-11-06T05:59:42.127Z,7.85
2022-11-06T06:00:41.951Z,7.79
2022-11-06T06:01:42.126Z,7.87
2022-11-06T06:02:42.179Z,7.87
2022-11-06T06:03:42.089Z,7.89
2022-11-06T06:04:41.941Z,7.94
2022-11-06T06:05:41.965Z,7.89
2022-11-06T06:06:41.926Z,7.90
2022-11-06T06:07:41.999Z,7.93
2022-11-06T06:08:41.917Z,7.77
2022-11-06T06:09:42.085Z,7.85
2022-11-06T06:10:42.055Z,7.85
2022-11-06T06:11:41.913Z,7.90
2022-11-06T06:12:42.001Z,7.90
2022-11-06T06:13:41.969Z,7.87
2022-11-06T06:14:42.648Z,7.89
2022-11-06T06:15:41.918Z,7.90
2022-11-06T06:16:41.976Z,7.99
2022-11-06T06:17:41.853Z,7.96
2022-11-06T06:18:41.947Z,7.90
2022-11-06T06:19:41.928Z,7.96
2022-11-06T06:20:41.956Z,7.96
2022-11-06T06:21:41.976Z,7.97
2022-11-06T06:22:41.966Z,8.07
2022-11-06T06:23:41.828Z,8.04
2022-11-06T06:24:41.955Z,8.07
2022-11-06T06:25:41.907Z,8.03
2022-11-06T06:26:41.799Z,7.96
2022-11-06T06:27:41.893Z,8.02
2022-11-06T06:28:41.904Z,7.93
2022-11-06T06:29:41.789Z,7.93
2022-11-06T06:30:41.900Z,7.87
2022-11-06T06:31:41.856Z,7.93
2022-11-06T06:32:41.824Z,7.99
2022-11-06T06:33:41.747Z,7.93
2022-11-06T06:34:41.731Z,7.89
2022-11-06T06:35:41.727Z,7.81
2022-11-06T06:36:41.877Z,7.92
2022-11-06T06:37:41.696Z,7.85
2022-11-06T06:38:42.015Z,7.85
2022-11-06T06:39:41.720Z,7.84
2022-11-06T06:40:41.782Z,7.87
2022-11-06T06:41:41.712Z,7.92
2022-11-06T06:42:41.767Z,7.99
2022-11-06T06:43:41.801Z,7.99
2022-11-06T06:44:41.684Z,7.94
2022-11-06T06:45:41.809Z,7.92
2022-11-06T06:46:41.753Z,7.96
2022-11-06T06:47:41.655Z,7.90
2022-11-06T06:48:41.708Z,8.03
2022-11-06T06:49:41.785Z,8.07
2022-11-06T06:50:41.645Z,7.99
2022-11-06T06:51:41.754Z,8.14
2022-11-06T06:52:41.691Z,8.14
2022-11-06T06:53:41.612Z,8.10
2022-11-06T06:54:41.736Z,8.12
2022-11-06T06:55:41.791Z,8.15
2022-11-06T06:56:41.575Z,8.02
2022-11-06T06:57:41.848Z,8.03
2022-11-06T06:58:41.663Z,8.04
2022-11-06T06:59:41.569Z,8.03
2022-11-06T07:00:41.655Z,8.03
2022-11-06T07:01:41.708Z,8.02
2022-11-06T07:02:41.545Z,8.07
2022-11-06T07:03:41.581Z,8.00
2022-11-06T07:04:41.545Z,8.04
2022-11-06T07:05:41.564Z,8.00
2022-11-06T07:06:41.525Z,8.00
2022-11-06T07:07:41.608Z,8.04
2022-11-06T07:08:41.498Z,8.10
2022-11-06T07:09:41.508Z,8.02
2022-11-06T07:10:41.504Z,8.14
2022-11-06T07:11:41.530Z,8.03
2022-11-06T07:12:41.547Z,8.20
2022-11-06T07:13:41.567Z,8.18
2022-11-06T07:14:41.468Z,8.21
2022-11-06T07:15:41.538Z,8.18
2022-11-06T07:16:41.596Z,8.10
2022-11-06T07:17:41.488Z,8.12
2022-11-06T07:18:41.605Z,8.26
2022-11-06T07:19:41.678Z,8.14
2022-11-06T07:20:41.384Z,8.15
2022-11-06T07:21:41.565Z,8.22
2022-11-06T07:22:41.450Z,8.33
2022-11-06T07:23:41.523Z,8.30
2022-11-06T07:24:41.520Z,8.29
2022-11-06T07:25:41.487Z,8.30
2022-11-06T07:26:41.386Z,8.45
2022-11-06T07:27:41.405Z,8.48
2022-11-06T07:28:41.453Z,8.42
2022-11-06T07:29:41.465Z,8.40
2022-11-06T07:30:41.424Z,8.40
2022-11-06T07:31:41.429Z,8.48
2022-11-06T07:32:41.380Z,8.39
2022-11-06T07:33:41.477Z,8.36
2022-11-06T07:34:41.407Z,8.37
2022-11-06T07:35:41.568Z,8.44
2022-11-06T07:36:41.489Z,8.54
2022-11-06T07:37:41.459Z,8.48
2022-11-06T07:38:41.605Z,8.44
2022-11-06T07:39:41.424Z,8.47
2022-11-06T07:40:41.359Z,8.57
2022-11-06T07:41:41.494Z,8.40
2022-11-06T07:42:43.627Z,8.39
2022-11-06T07:43:42.436Z,8.21
2022-11-06T07:44:41.262Z,8.25
2022-11-06T07:45:41.222Z,8.30
2022-11-06T07:46:41.321Z,8.36
2022-11-06T07:47:41.230Z,8.33
2022-11-06T07:48:41.229Z,8.42
2022-11-06T07:49:42.172Z,8.36
2022-11-06T07:50:41.190Z,8.37
2022-11-06T07:51:41.193Z,8.29
2022-11-06T07:52:41.274Z,8.33
2022-11-06T07:53:41.267Z,8.45
2022-11-06T07:54:41.437Z,8.50
2022-11-06T07:55:42.507Z,8.60
2022-11-06T07:56:42.717Z,8.71
2022-11-06T07:57:41.263Z,8.63
2022-11-06T07:58:41.220Z,8.71
2022-11-06T07:59:41.207Z,8.79
2022-11-06T08:00:41.220Z,8.73
2022-11-06T08:01:41.306Z,8.81
2022-11-06T08:02:41.296Z,8.73
2022-11-06T08:03:41.231Z,8.71
2022-11-06T08:04:41.277Z,8.71
2022-11-06T08:05:41.142Z,8.81
2022-11-06T08:06:41.145Z,8.72
2022-11-06T08:07:41.173Z,8.76
2022-11-06T08:08:42.110Z,8.73
2022-11-06T08:09:41.111Z,8.65
2022-11-06T08:10:41.137Z,8.71
2022-11-06T08:11:41.188Z,8.71
2022-11-06T08:12:41.127Z,8.83
2022-11-06T08:13:41.123Z,8.86
2022-11-06T08:14:42.084Z,8.88
2022-11-06T08:15:41.087Z,8.81
2022-11-06T08:16:41.105Z,8.86
2022-11-06T08:17:41.098Z,8.91
2022-11-06T08:18:41.090Z,8.81
2022-11-06T08:19:41.062Z,8.71
2022-11-06T08:20:41.048Z,8.73
2022-11-06T08:21:41.157Z,8.79
2022-11-06T08:22:41.081Z,8.78
2022-11-06T08:23:41.129Z,8.83
2022-11-06T08:24:40.942Z,8.88
2022-11-06T08:25:40.981Z,9.01
2022-11-06T08:26:40.972Z,8.90
2022-11-06T08:27:41.000Z,8.90
2022-11-06T08:28:41.004Z,8.93
2022-11-06T08:29:41.800Z,8.96
2022-11-06T08:30:41.899Z,8.93
2022-11-06T08:31:40.901Z,8.91
2022-11-06T08:32:40.980Z,9.02
2022-11-06T08:33:41.028Z,8.87
2022-11-06T08:34:40.960Z,9.10
2022-11-06T08:35:40.986Z,9.15
2022-11-06T08:36:42.294Z,9.04
2022-11-06T08:37:40.990Z,9.06
2022-11-06T08:38:41.052Z,9.01
2022-11-06T08:39:40.926Z,8.96
2022-11-06T08:40:40.937Z,9.18
2022-11-06T08:41:40.911Z,9.06
2022-11-06T08:42:41.012Z,9.18
2022-11-06T08:43:40.961Z,9.06
2022-11-06T08:44:41.042Z,8.99
2022-11-06T08:45:40.812Z,9.12
2022-11-06T08:46:40.830Z,9.20
2022-11-06T08:47:40.799Z,9.39
2022-11-06T08:48:40.867Z,9.38
2022-11-06T08:49:40.904Z,9.35
2022-11-06T08:50:40.837Z,9.30
2022-11-06T08:51:40.874Z,9.39
2022-11-06T08:52:40.842Z,9.43
2022-11-06T08:53:40.994Z,9.53
2022-11-06T08:54:42.041Z,9.48
2022-11-06T08:55:40.804Z,9.60
2022-11-06T08:56:40.821Z,9.49
2022-11-06T08:57:40.813Z,9.61
2022-11-06T08:58:40.792Z,9.71
2022-11-06T08:59:52.554Z,9.75
2022-11-06T09:00:41.866Z,9.85
2022-11-06T09:01:40.918Z,9.82
2022-11-06T09:02:40.775Z,9.94
2022-11-06T09:03:40.783Z,10.01
2022-11-06T09:04:41.618Z,10.01
2022-11-06T09:05:41.816Z,10.00
2022-11-06T09:06:40.694Z,10.00
2022-11-06T09:07:40.693Z,10.18
2022-11-06T09:08:40.734Z,10.12
2022-11-06T09:09:40.772Z,10.18
2022-11-06T09:10:40.731Z,10.14
2022-11-06T09:11:40.803Z,10.03
2022-11-06T09:12:40.750Z,9.79
2022-11-06T09:13:40.673Z,9.86
2022-11-06T09:14:40.774Z,9.93
2022-11-06T09:15:41.198Z,10.12
2022-11-06T09:16:40.709Z,10.14
2022-11-06T09:17:40.739Z,10.01
2022-11-06T09:18:40.670Z,9.85
2022-11-06T09:19:40.633Z,10.03
2022-11-06T09:20:40.701Z,10.18
2022-11-06T09:21:40.696Z,10.17
2022-11-06T09:22:40.579Z,10.33
2022-11-06T09:23:40.613Z,10.32
2022-11-06T09:25:02.128Z,10.44
2022-11-06T09:25:42.520Z,10.43
2022-11-06T09:26:40.719Z,10.53
2022-11-06T09:27:40.586Z,10.55
2022-11-06T09:28:41.538Z,10.63
2022-11-06T09:29:40.505Z,10.63
2022-11-06T09:30:40.456Z,10.78
2022-11-06T09:31:40.525Z,10.96
2022-11-06T09:32:40.554Z,10.95
2022-11-06T09:33:40.464Z,10.89
2022-11-06T09:34:40.446Z,11.01
2022-11-06T09:35:40.490Z,11.02
2022-11-06T09:36:40.513Z,10.99
2022-11-06T09:37:40.500Z,11.11
2022-11-06T09:38:40.540Z,11.16
2022-11-06T09:39:40.536Z,11.20
2022-11-06T09:40:40.501Z,11.09
2022-11-06T09:41:40.485Z,10.96
2022-11-06T09:42:40.521Z,11.21
2022-11-06T09:44:42.421Z,11.16
2022-11-06T09:45:40.471Z,11.11
2022-11-06T09:46:40.503Z,11.06
2022-11-06T09:47:40.435Z,11.10
2022-11-06T09:48:40.513Z,11.06
2022-11-06T09:49:40.426Z,11.01
2022-11-06T09:50:40.463Z,10.95
2022-11-06T09:51:40.490Z,11.02
2022-11-06T09:52:40.449Z,10.94
2022-11-06T09:53:40.404Z,10.96
2022-11-06T09:54:40.354Z,11.02
2022-11-06T09:55:40.373Z,11.03
2022-11-06T09:56:40.311Z,11.03
2022-11-06T09:57:40.307Z,11.13
2022-11-06T09:58:40.456Z,11.02
2022-11-06T09:59:40.502Z,11.20
2022-11-06T10:00:40.286Z,11.20
2022-11-06T10:01:40.489Z,11.20
2022-11-06T10:02:40.495Z,11.09
2022-11-06T10:03:40.368Z,11.14
2022-11-06T10:04:40.414Z,11.20
2022-11-06T10:05:40.323Z,11.11
2022-11-06T10:06:41.384Z,11.24
2022-11-06T10:07:40.302Z,11.11
2022-11-06T10:08:40.849Z,11.25
2022-11-06T10:09:40.373Z,11.25
2022-11-06T10:10:40.311Z,11.27
2022-11-06T10:11:40.294Z,11.07
2022-11-06T10:12:40.282Z,11.07
2022-11-06T10:13:40.282Z,11.07
2022-11-06T10:14:40.344Z,11.21
2022-11-06T10:15:40.422Z,11.11
2022-11-06T10:16:40.332Z,11.13
2022-11-06T10:17:40.233Z,11.19
2022-11-06T10:18:40.369Z,11.36
2022-11-06T10:19:40.500Z,11.36
2022-11-06T10:20:40.339Z,11.36
2022-11-06T10:21:40.144Z,11.44
2022-11-06T10:22:40.295Z,11.49
2022-11-06T10:23:40.102Z,11.44
2022-11-06T10:24:40.216Z,11.50
2022-11-06T10:25:40.227Z,11.31
2022-11-06T10:26:40.311Z,11.32
2022-11-06T10:27:40.425Z,11.34
2022-11-06T10:28:40.672Z,11.29
2022-11-06T10:29:40.246Z,11.35
2022-11-06T10:30:40.200Z,11.16
2022-11-06T10:31:40.257Z,11.02
2022-11-06T10:32:40.256Z,10.94
2022-11-06T10:33:40.203Z,10.83
2022-11-06T10:34:40.646Z,10.95
2022-11-06T10:35:40.654Z,11.03
2022-11-06T10:36:40.270Z,11.07
2022-11-06T10:37:40.236Z,11.02
2022-11-06T10:38:40.030Z,11.10
2022-11-06T10:39:40.074Z,11.06
2022-11-06T10:40:39.996Z,10.98
2022-11-06T10:41:40.094Z,11.03
2022-11-06T10:42:40.029Z,10.95
2022-11-06T10:43:40.256Z,10.92
2022-11-06T10:44:40.128Z,10.78
2022-11-06T10:45:40.056Z,10.84
2022-11-06T10:46:40.241Z,10.95
2022-11-06T10:47:40.081Z,11.06
2022-11-06T10:48:41.584Z,10.96
2022-11-06T10:49:41.370Z,11.06
2022-11-06T10:50:40.087Z,11.13
2022-11-06T10:51:40.077Z,10.98
2022-11-06T10:52:40.015Z,11.03
2022-11-06T10:53:40.608Z,11.09
2022-11-06T10:54:40.055Z,11.02
2022-11-06T10:55:39.957Z,11.01
2022-11-06T10:56:39.935Z,11.20
2022-11-06T10:57:40.104Z,11.19
2022-11-06T10:58:40.077Z,11.14
2022-11-06T10:59:39.917Z,11.16
2022-11-06T11:00:39.971Z,11.19
2022-11-06T11:01:40.001Z,11.09
2022-11-06T11:02:40.095Z,11.09
2022-11-06T11:03:39.925Z,11.19
2022-11-06T11:04:40.091Z,11.29
2022-11-06T11:05:40.072Z,11.29
2022-11-06T11:06:40.034Z,11.52
2022-11-06T11:07:39.994Z,11.64
2022-11-06T11:08:40.130Z,11.64
2022-11-06T11:09:39.938Z,11.68
2022-11-06T11:10:39.869Z,11.72
2022-11-06T11:11:40.885Z,11.85
2022-11-06T11:12:39.884Z,11.77
2022-11-06T11:13:39.986Z,11.71
2022-11-06T11:14:39.915Z,11.82
2022-11-06T11:15:40.079Z,11.86
2022-11-06T11:16:39.940Z,12.01
2022-11-06T11:17:39.816Z,12.06
2022-11-06T11:18:39.792Z,12.09
2022-11-06T11:19:40.315Z,12.11
2022-11-06T11:20:40.051Z,12.01
2022-11-06T11:21:39.695Z,12.01
2022-11-06T11:22:39.733Z,12.01
2022-11-06T11:23:39.744Z,12.11
2022-11-06T11:24:39.807Z,12.27
2022-11-06T11:25:39.658Z,12.19
2022-11-06T11:26:39.756Z,12.27
2022-11-06T11:27:39.793Z,12.19
2022-11-06T11:28:39.705Z,12.15
2022-11-06T11:29:39.809Z,12.05
2022-11-06T11:30:39.692Z,12.05
2022-11-06T11:31:39.694Z,12.04
2022-11-06T11:32:39.678Z,12.05
2022-11-06T11:33:39.700Z,12.05
2022-11-06T11:34:42.407Z,12.11
2022-11-06T11:35:41.709Z,12.15
2022-11-06T11:36:39.783Z,12.29
2022-11-06T11:37:39.913Z,12.24
2022-11-06T11:38:40.020Z,12.31
2022-11-06T11:39:39.718Z,12.26
2022-11-06T11:40:39.623Z,12.27
2022-11-06T11:41:39.767Z,12.33
2022-11-06T11:42:40.077Z,12.38
2022-11-06T11:43:39.718Z,12.49
2022-11-06T11:44:39.769Z,12.49
2022-11-06T11:45:40.498Z,12.56
2022-11-06T11:46:39.548Z,12.57
2022-11-06T11:47:39.650Z,12.48
2022-11-06T11:48:39.524Z,12.51
2022-11-06T11:49:40.055Z,12.62
2022-11-06T11:50:39.531Z,12.56
2022-11-06T11:51:39.626Z,12.59
2022-11-06T11:52:41.967Z,12.66
2022-11-06T11:53:39.986Z,12.67
2022-11-06T11:54:39.549Z,12.67
2022-11-06T11:55:39.582Z,12.69
2022-11-06T11:57:41.524Z,12.74
2022-11-06T11:58:39.585Z,12.71
2022-11-06T11:59:39.510Z,12.78
2022-11-06T12:00:39.429Z,12.85
2022-11-06T12:01:39.519Z,12.85
2022-11-06T12:02:39.608Z,12.87
2022-11-06T12:03:39.499Z,12.89
2022-11-06T12:04:39.521Z,12.82
2022-11-06T12:05:39.514Z,12.87
2022-11-06T12:06:39.610Z,12.93
2022-11-06T12:07:44.944Z,12.96
2022-11-06T12:08:41.387Z,12.95
2022-11-06T12:09:39.572Z,12.97
2022-11-06T12:10:39.376Z,13.00
2022-11-06T12:11:39.545Z,13.02
2022-11-06T12:12:39.439Z,13.21
2022-11-06T12:13:39.415Z,13.27
2022-11-06T12:14:39.413Z,13.30
2022-11-06T12:15:39.499Z,13.36
2022-11-06T12:16:39.403Z,13.38
2022-11-06T12:17:39.393Z,13.38
2022-11-06T12:18:39.382Z,13.44
2022-11-06T12:19:39.511Z,13.52
2022-11-06T12:20:39.488Z,13.47
2022-11-06T12:21:39.383Z,13.63
2022-11-06T12:22:39.374Z,13.59
2022-11-06T12:23:39.511Z,13.70
2022-11-06T12:24:39.321Z,13.77
2022-11-06T12:25:39.274Z,13.89
2022-11-06T12:26:40.545Z,13.99
2022-11-06T12:27:39.238Z,14.13
2022-11-06T12:28:39.253Z,14.09
2022-11-06T12:29:39.261Z,13.83
2022-11-06T12:30:39.228Z,13.74
2022-11-06T12:31:39.299Z,13.67
2022-11-06T12:32:39.336Z,13.69
2022-11-06T12:34:04.985Z,13.69
2022-11-06T12:34:41.251Z,13.76
2022-11-06T12:35:39.372Z,13.79
2022-11-06T12:36:39.612Z,13.94
2022-11-06T12:37:39.229Z,13.94
2022-11-06T12:38:39.224Z,13.91
2022-11-06T12:39:39.250Z,13.74
2022-11-06T12:40:39.255Z,13.91
2022-11-06T12:41:39.257Z,13.91
2022-11-06T12:42:39.370Z,13.98
2022-11-06T12:43:40.284Z,14.06
2022-11-06T12:44:39.124Z,14.09
2022-11-06T12:45:39.097Z,14.16
2022-11-06T12:46:39.178Z,14.17
2022-11-06T12:47:39.266Z,14.31
2022-11-06T12:48:39.246Z,14.31
2022-11-06T12:49:39.235Z,14.37
2022-11-06T12:50:39.202Z,14.32
2022-11-06T12:51:39.148Z,14.46
2022-11-06T12:52:39.163Z,14.53
2022-11-06T12:53:39.219Z,14.39
2022-11-06T12:54:39.148Z,14.28
2022-11-06T12:55:39.257Z,14.27
2022-11-06T12:57:19.905Z,14.06
2022-11-06T12:57:39.046Z,14.32
2022-11-06T12:58:39.431Z,14.31
2022-11-06T12:59:39.076Z,14.19
2022-11-06T13:00:41.978Z,14.17
2022-11-06T13:01:39.227Z,14.21
2022-11-06T13:02:38.979Z,14.17
2022-11-06T13:03:38.989Z,14.21
2022-11-06T13:04:39.019Z,14.34
2022-11-06T13:05:38.928Z,14.95
2022-11-06T13:06:39.095Z,15.39
2022-11-06T13:07:39.019Z,15.28
2022-11-06T13:08:40.510Z,15.31
2022-11-06T13:09:38.986Z,15.68
2022-11-06T13:10:39.020Z,15.48
2022-11-06T15:57:04.257Z,10.56
2022-11-06T15:58:05.311Z,10.53